createdAt,value
2022-12-25T00:00:42.063Z,4.32
2022-12-25T00:03:09.477Z,4.36
2022-12-25T00:05:39.207Z,4.33
2022-12-25T00:08:06.588Z,4.41
2022-12-25T00:10:33.556Z,4.49
2022-12-25T00:12:59.911Z,4.45
2022-12-25T00:15:27.842Z,4.41
2022-12-25T00:17:54.144Z,4.42
2022-12-25T00:20:20.450Z,4.42
2022-12-25T00:22:46.755Z,4.32
2022-12-25T00:25:13.041Z,4.27
2022-12-25T00:27:39.422Z,4.19
2022-12-25T00:30:07.872Z,4.07
2022-12-25T00:32:37.679Z,4.02
2022-12-25T00:35:05.332Z,3.95
2022-12-25T00:37:31.682Z,3.87
2022-12-25T00:39:58.823Z,3.86
2022-12-25T00:42:26.840Z,3.86
2022-12-25T00:44:53.175Z,3.84
2022-12-25T00:47:19.577Z,3.80
2022-12-25T00:49:46.112Z,3.68
2022-12-25T00:52:12.484Z,3.62
2022-12-25T00:54:39.005Z,3.60
2022-12-25T00:57:05.290Z,3.56
2022-12-25T00:59:36.273Z,3.53
2022-12-25T01:02:21.198Z,3.49
2022-12-25T01:04:48.455Z,3.52
2022-12-25T01:07:16.740Z,3.49
2022-12-25T01:10:03.301Z,3.46
2022-12-25T01:12:30.948Z,3.42
2022-12-25T01:14:57.294Z,3.41
2022-12-25T01:17:23.689Z,3.38
2022-12-25T01:19:50.100Z,3.35
2022-12-25T01:22:16.779Z,3.35
2022-12-25T01:24:44.283Z,3.29
2022-12-25T01:27:11.760Z,3.26
2022-12-25T01:29:38.538Z,3.24
2022-12-25T01:32:05.505Z,3.20
2022-12-25T01:34:32.072Z,3.18
2022-12-25T01:36:58.361Z,3.17
2022-12-25T01:39:24.744Z,3.17
2022-12-25T01:41:51.087Z,3.15
2022-12-25T01:44:20.249Z,3.16
2022-12-25T01:46:46.638Z,3.15
2022-12-25T01:49:19.607Z,3.18
2022-12-25T01:52:23.861Z,3.15
2022-12-25T01:54:57.700Z,3.12
2022-12-25T01:57:28.690Z,3.13
2022-12-25T01:59:57.401Z,3.10
2022-12-25T02:02:24.651Z,3.12
2022-12-25T02:05:03.338Z,3.13
2022-12-25T02:07:34.534Z,3.13
2022-12-25T02:10:00.886Z,3.05
2022-12-25T02:12:30.638Z,3.09
2022-12-25T02:15:05.466Z,3.14
2022-12-25T02:17:49.574Z,3.24
2022-12-25T02:20:34.295Z,3.29
2022-12-25T02:23:38.088Z,3.30
2022-12-25T02:26:15.569Z,3.38
2022-12-25T02:29:20.892Z,3.42
2022-12-25T02:32:13.450Z,3.50
2022-12-25T02:34:55.584Z,3.61
2022-12-25T02:37:42.218Z,3.62
2022-12-25T02:40:46.991Z,3.66
2022-12-25T02:43:39.614Z,3.68
2022-12-25T02:46:28.107Z,3.66
2022-12-25T02:49:28.009Z,3.70
2022-12-25T02:52:20.838Z,3.72
2022-12-25T02:55:11.841Z,3.76
2022-12-25T02:58:02.656Z,3.75
2022-12-25T03:00:50.572Z,3.78
2022-12-25T03:03:38.420Z,3.78
2022-12-25T03:06:25.997Z,3.69
2022-12-25T03:09:16.930Z,3.76
2022-12-25T03:11:46.040Z,3.75
2022-12-25T03:14:31.374Z,3.73
2022-12-25T03:16:59.509Z,3.71
2022-12-25T03:19:48.188Z,3.72
2022-12-25T03:22:43.413Z,3.65
2022-12-25T03:25:28.877Z,3.69
2022-12-25T03:27:56.760Z,3.65
2022-12-25T03:30:47.381Z,3.72
2022-12-25T03:33:43.852Z,3.75
2022-12-25T03:36:31.962Z,3.55
2022-12-25T03:39:40.077Z,3.52
2022-12-25T03:42:26.249Z,3.52
2022-12-25T03:45:20.981Z,3.47
2022-12-25T03:48:29.887Z,3.52
2022-12-25T03:51:22.592Z,3.57
2022-12-25T03:54:14.531Z,3.48
2022-12-25T03:57:02.322Z,3.46
2022-12-25T03:59:46.996Z,3.49
2022-12-25T04:02:32.031Z,3.48
2022-12-25T04:05:17.151Z,3.52
2022-12-25T04:08:01.908Z,3.53
2022-12-25T04:10:46.770Z,3.46
2022-12-25T04:13:31.530Z,3.31
2022-12-25T04:16:16.626Z,3.43
2022-12-25T04:19:01.486Z,3.47
2022-12-25T04:21:46.397Z,3.39
2022-12-25T04:24:31.678Z,3.43
2022-12-25T04:27:16.930Z,3.45
2022-12-25T04:30:01.843Z,3.46
2022-12-25T04:32:46.621Z,3.36
2022-12-25T04:35:39.449Z,3.32
2022-12-25T04:38:05.759Z,3.36
2022-12-25T04:40:32.096Z,3.29
2022-12-25T04:42:58.430Z,3.28
2022-12-25T04:45:24.753Z,3.25
2022-12-25T04:47:51.134Z,3.19
2022-12-25T04:50:17.469Z,3.22
2022-12-25T04:52:43.805Z,3.20
2022-12-25T04:55:10.825Z,3.26
2022-12-25T04:57:37.908Z,3.24
2022-12-25T05:00:05.466Z,3.17
2022-12-25T05:02:32.113Z,3.12
2022-12-25T05:04:58.645Z,3.14
2022-12-25T05:07:24.979Z,3.15
2022-12-25T05:09:51.313Z,3.16
2022-12-25T05:12:17.670Z,3.13
2022-12-25T05:14:44.024Z,3.16
2022-12-25T05:17:10.402Z,3.19
2022-12-25T05:19:36.744Z,3.18
2022-12-25T05:22:03.096Z,3.11
2022-12-25T05:24:29.453Z,3.09
2022-12-25T05:26:55.882Z,3.10
2022-12-25T05:29:22.274Z,3.15
2022-12-25T05:31:48.745Z,3.17
2022-12-25T05:34:15.101Z,3.14
2022-12-25T05:36:41.431Z,3.10
2022-12-25T05:39:07.755Z,3.16
2022-12-25T05:41:34.968Z,3.11
2022-12-25T05:44:01.605Z,3.12
2022-12-25T05:46:27.979Z,3.13
2022-12-25T05:48:54.309Z,3.18
2022-12-25T05:51:20.652Z,3.15
2022-12-25T05:53:47.008Z,3.12
2022-12-25T05:56:13.366Z,3.18
2022-12-25T05:58:40.505Z,3.23
2022-12-25T06:01:16.615Z,3.26
2022-12-25T06:03:43.127Z,3.28
2022-12-25T06:06:10.761Z,3.31
2022-12-25T06:08:37.112Z,3.39
2022-12-25T06:11:05.557Z,3.42
2022-12-25T06:13:33.900Z,3.47
2022-12-25T06:16:04.149Z,3.54
2022-12-25T06:18:30.560Z,3.61
2022-12-25T06:20:57.023Z,3.68
2022-12-25T06:23:23.485Z,3.73
2022-12-25T06:25:49.815Z,3.78
2022-12-25T06:28:16.418Z,3.84
2022-12-25T06:30:42.833Z,3.88
2022-12-25T06:33:09.200Z,3.89
2022-12-25T06:35:39.363Z,3.92
2022-12-25T06:38:05.944Z,3.87
2022-12-25T06:40:32.279Z,3.91
2022-12-25T06:42:58.658Z,3.94
2022-12-25T06:45:24.991Z,3.94
2022-12-25T06:47:51.455Z,3.98
2022-12-25T06:50:17.870Z,3.97
2022-12-25T06:52:44.207Z,3.96
2022-12-25T06:55:10.540Z,3.99
2022-12-25T06:57:36.920Z,4.02
2022-12-25T07:00:04.864Z,4.08
2022-12-25T07:02:33.300Z,4.13
2022-12-25T07:05:01.042Z,4.21
2022-12-25T07:07:27.368Z,4.21
2022-12-25T07:09:53.652Z,4.21
2022-12-25T07:12:21.697Z,4.30
2022-12-25T07:14:50.982Z,4.32
2022-12-25T07:17:18.494Z,4.39
2022-12-25T07:19:46.160Z,4.36
2022-12-25T07:22:13.217Z,4.41
2022-12-25T07:24:39.659Z,4.46
2022-12-25T07:27:06.051Z,4.40
2022-12-25T07:29:32.542Z,4.43
2022-12-25T07:31:58.923Z,4.44
2022-12-25T07:34:25.508Z,4.43
2022-12-25T07:36:52.087Z,4.43
2022-12-25T07:39:20.084Z,4.39
2022-12-25T07:41:46.474Z,4.45
2022-12-25T07:44:12.812Z,4.44
2022-12-25T07:46:39.172Z,4.43
2022-12-25T07:49:05.552Z,4.45
2022-12-25T07:51:31.935Z,4.43
2022-12-25T07:53:58.428Z,4.44
2022-12-25T07:56:24.973Z,4.48
2022-12-25T07:58:51.431Z,4.46
2022-12-25T08:01:21.098Z,4.44
2022-12-25T08:03:53.513Z,4.43
2022-12-25T08:06:22.085Z,4.47
2022-12-25T08:08:49.070Z,4.50
2022-12-25T08:11:16.641Z,4.51
2022-12-25T08:13:43.142Z,4.54
2022-12-25T08:16:10.649Z,4.53
2022-12-25T08:18:38.718Z,4.52
2022-12-25T08:21:10.012Z,4.56
2022-12-25T08:23:39.050Z,4.60
2022-12-25T08:26:08.929Z,4.59
2022-12-25T08:28:36.378Z,4.57
2022-12-25T08:31:07.768Z,4.51
2022-12-25T08:33:36.475Z,4.52
2022-12-25T08:36:08.195Z,4.59
2022-12-25T08:38:35.938Z,4.63
2022-12-25T08:41:02.555Z,4.65
2022-12-25T08:43:28.893Z,4.67
2022-12-25T08:45:55.709Z,4.75
2022-12-25T08:48:22.427Z,4.81
2022-12-25T08:50:51.788Z,4.88
2022-12-25T08:53:19.060Z,4.83
2022-12-25T08:55:45.380Z,4.86
2022-12-25T08:58:14.534Z,4.90
2022-12-25T09:00:41.129Z,4.91
2022-12-25T09:03:08.727Z,4.98
2022-12-25T09:05:36.719Z,4.96
2022-12-25T09:08:03.539Z,5.10
2022-12-25T09:10:29.968Z,5.14
2022-12-25T09:12:56.378Z,5.12
2022-12-25T09:15:25.975Z,5.24
2022-12-25T09:17:52.292Z,5.34
2022-12-25T09:20:18.657Z,5.38
2022-12-25T09:22:44.967Z,5.42
2022-12-25T09:25:11.518Z,5.49
2022-12-25T09:27:37.976Z,5.46
2022-12-25T09:30:05.422Z,5.45
2022-12-25T09:32:31.793Z,5.42
2022-12-25T09:34:58.119Z,5.45
2022-12-25T09:37:24.492Z,5.41
2022-12-25T09:39:50.863Z,5.46
2022-12-25T09:42:22.325Z,5.52
2022-12-25T09:44:54.957Z,5.52
2022-12-25T09:47:28.912Z,5.52
2022-12-25T09:50:11.428Z,5.58
2022-12-25T09:52:58.434Z,5.60
2022-12-25T09:55:27.271Z,5.60
2022-12-25T09:57:56.059Z,5.71
2022-12-25T10:00:25.017Z,5.72
2022-12-25T10:02:57.408Z,5.74
2022-12-25T10:05:39.462Z,5.74
2022-12-25T10:08:23.951Z,5.70
2022-12-25T10:11:38.979Z,5.71
2022-12-25T10:14:18.776Z,5.69
2022-12-25T10:16:51.077Z,5.69
2022-12-25T10:19:31.456Z,5.69
2022-12-25T10:22:03.776Z,5.68
2022-12-25T10:24:38.174Z,5.72
2022-12-25T10:27:13.813Z,5.77
2022-12-25T10:29:41.539Z,5.78
2022-12-25T10:32:10.587Z,5.81
2022-12-25T10:34:40.498Z,5.83
2022-12-25T10:37:06.923Z,5.82
2022-12-25T10:39:33.287Z,5.82
2022-12-25T10:42:18.262Z,5.85
2022-12-25T10:45:13.924Z,5.85
2022-12-25T10:47:44.108Z,5.93
2022-12-25T10:50:24.656Z,5.94
2022-12-25T10:53:00.793Z,5.97
2022-12-25T10:55:29.555Z,5.99
2022-12-25T10:57:57.665Z,6.03
2022-12-25T11:00:30.155Z,6.03
2022-12-25T11:02:56.924Z,6.04
2022-12-25T11:05:30.245Z,6.03
2022-12-25T11:07:58.431Z,6.08
2022-12-25T11:10:38.830Z,6.13
2022-12-25T11:13:07.620Z,6.07
2022-12-25T11:15:45.141Z,6.15
2022-12-25T11:18:26.257Z,6.13
2022-12-25T11:21:00.300Z,6.09
2022-12-25T11:23:29.311Z,6.14
2022-12-25T11:25:57.671Z,6.18
2022-12-25T11:28:25.086Z,6.24
2022-12-25T11:30:57.748Z,6.25
2022-12-25T11:33:30.867Z,6.35
2022-12-25T11:35:59.429Z,6.38
2022-12-25T11:38:28.194Z,6.41
2022-12-25T11:41:02.669Z,6.43
2022-12-25T11:43:44.249Z,6.48
2022-12-25T11:46:21.182Z,6.32
2022-12-25T11:48:55.985Z,6.35
2022-12-25T11:51:26.462Z,6.35
2022-12-25T11:53:55.948Z,6.30
2022-12-25T11:56:26.095Z,6.38
2022-12-25T11:58:56.801Z,6.34
2022-12-25T12:01:33.266Z,6.32
2022-12-25T12:04:02.012Z,6.40
2022-12-25T12:06:46.334Z,6.41
2022-12-25T12:09:37.804Z,6.44
2022-12-25T12:12:16.095Z,6.49
2022-12-25T12:14:48.615Z,6.51
2022-12-25T12:17:19.501Z,6.52
2022-12-25T12:19:46.401Z,6.51
2022-12-25T12:22:21.236Z,6.53
2022-12-25T12:24:54.279Z,-143.99
2022-12-25T12:27:23.220Z,-143.99
2022-12-25T12:29:53.230Z,-143.99
2022-12-25T12:32:40.616Z,-143.99
2022-12-25T12:35:18.543Z,-143.99
2022-12-25T12:37:48.847Z,-143.99
2022-12-25T12:40:33.626Z,-143.99
2022-12-25T12:43:01.281Z,-143.99
2022-12-25T12:45:34.898Z,-143.99
2022-12-25T12:48:02.507Z,-143.99
2022-12-25T12:50:40.932Z,-143.99
2022-12-25T12:53:28.319Z,-143.99
2022-12-25T12:55:55.471Z,-143.99
2022-12-25T12:58:45.337Z,-143.99
2022-12-25T13:01:19.065Z,-143.99
2022-12-25T13:04:06.427Z,-143.99
2022-12-25T13:07:10.087Z,-143.99
2022-12-25T13:10:12.907Z,-143.99
2022-12-25T13:12:39.407Z,-143.99
2022-12-25T13:15:13.186Z,-143.99
2022-12-25T13:17:44.625Z,-143.99
2022-12-25T13:20:23.673Z,-143.99
2022-12-25T13:22:52.945Z,-143.99
2022-12-25T13:25:22.263Z,-143.99
2022-12-25T13:27:56.873Z,-143.99
2022-12-25T13:30:24.345Z,-143.99
2022-12-25T13:32:50.970Z,-143.99
2022-12-25T13:35:20.995Z,-143.99
2022-12-25T13:37:47.561Z,-143.99
2022-12-25T13:40:25.954Z,-143.99
2022-12-25T13:42:58.427Z,-143.99
2022-12-25T13:45:28.816Z,-143.99
2022-12-25T13:47:56.084Z,-143.99
2022-12-25T13:50:33.949Z,-143.99
2022-12-25T13:53:12.426Z,-143.99
2022-12-25T13:55:39.301Z,-143.99
2022-12-25T13:58:11.032Z,-143.99
2022-12-25T14:00:45.182Z,-143.99
2022-12-25T14:03:35.208Z,-143.99
2022-12-25T14:06:14.949Z,-143.99
2022-12-25T14:08:41.584Z,-143.99
2022-12-25T14:11:08.761Z,-143.99
2022-12-25T14:13:37.667Z,-143.99
2022-12-25T14:16:05.043Z,-143.99
2022-12-25T14:18:31.353Z,-143.99
2022-12-25T14:21:10.050Z,-143.99
2022-12-25T14:23:42.911Z,-143.99
2022-12-25T14:26:22.969Z,-143.99
2022-12-25T14:28:53.184Z,-143.99
2022-12-25T14:31:21.151Z,-143.99
2022-12-25T14:33:49.169Z,-143.99
2022-12-25T14:36:15.826Z,-143.99
2022-12-25T14:38:43.862Z,-143.99
2022-12-25T14:41:33.187Z,-143.99
2022-12-25T14:44:02.108Z,-143.99
2022-12-25T14:46:31.897Z,-143.99
2022-12-25T14:49:07.144Z,-143.99
2022-12-25T14:51:38.123Z,-143.99
2022-12-25T14:54:13.925Z,-143.99
2022-12-25T14:56:47.394Z,-143.99
2022-12-25T14:59:18.717Z,-143.99
2022-12-25T15:01:51.138Z,-143.99
2022-12-25T15:04:19.327Z,-143.99
2022-12-25T15:06:55.156Z,-143.99
2022-12-25T15:09:21.672Z,-143.99
2022-12-25T15:11:55.896Z,-143.99
2022-12-25T15:14:23.636Z,-143.99
2022-12-25T15:16:57.102Z,-143.99
2022-12-25T15:19:34.761Z,-143.99
2022-12-25T15:22:04.468Z,-143.99
2022-12-25T15:24:30.939Z,-143.99
2022-12-25T15:27:00.038Z,-143.99
2022-12-25T15:29:59.753Z,-143.99
2022-12-25T15:32:23.769Z,-143.99
2022-12-25T15:34:53.042Z,-143.99
2022-12-25T15:37:19.571Z,-143.99
2022-12-25T15:39:47.273Z,-143.99
2022-12-25T15:42:17.025Z,-143.99
2022-12-25T15:44:45.028Z,-143.99
2022-12-25T15:47:12.069Z,-143.99
2022-12-25T15:49:38.767Z,-143.99
2022-12-25T15:52:08.784Z,-143.99
2022-12-25T15:54:35.185Z,-143.99
2022-12-25T15:57:06.886Z,-143.99
2022-12-25T15:59:33.448Z,-143.99
2022-12-25T16:02:02.107Z,-143.99
2022-12-25T16:04:31.060Z,-143.99
2022-12-25T16:07:02.425Z,-143.99
2022-12-25T16:09:28.723Z,-143.99
2022-12-25T16:11:55.163Z,-143.99
2022-12-25T16:14:21.722Z,-143.99
2022-12-25T16:16:48.049Z,-143.99
2022-12-25T16:19:14.503Z,-143.99
2022-12-25T16:21:45.579Z,-143.99
2022-12-25T16:24:12.448Z,-143.99
2022-12-25T16:26:40.554Z,-143.99
2022-12-25T16:29:07.787Z,-143.99
2022-12-25T16:31:38.936Z,-143.99
2022-12-25T16:34:06.789Z,-143.99
2022-12-25T16:36:33.746Z,-143.99
2022-12-25T16:39:00.383Z,-143.99
2022-12-25T16:41:26.757Z,-143.99
2022-12-25T16:43:53.361Z,-143.99
2022-12-25T16:46:22.150Z,-143.99
2022-12-25T16:48:48.750Z,-143.99
2022-12-25T16:51:17.532Z,-143.99
2022-12-25T16:53:44.561Z,-143.99
2022-12-25T16:56:16.865Z,-143.99
2022-12-25T16:58:47.186Z,-143.99
2022-12-25T17:01:16.144Z,-143.99
2022-12-25T17:03:42.931Z,-143.99
2022-12-25T17:06:20.937Z,-143.99
2022-12-25T17:08:47.668Z,-143.99
2022-12-25T17:11:14.428Z,-143.99
2022-12-25T17:13:41.046Z,-143.99
2022-12-25T17:16:15.214Z,-143.99
2022-12-25T17:18:41.585Z,-143.99
2022-12-25T17:21:08.077Z,-143.99
2022-12-25T17:23:34.512Z,-143.99
2022-12-25T17:26:02.026Z,-143.99
2022-12-25T17:28:28.493Z,-143.99
2022-12-25T17:30:54.818Z,-143.99
2022-12-25T17:33:21.785Z,-143.99
2022-12-25T17:35:48.161Z,-143.99
2022-12-25T17:38:14.552Z,-143.99
2022-12-25T17:40:40.934Z,-143.99
2022-12-25T17:43:07.207Z,-143.99
2022-12-25T17:45:36.703Z,-143.99
2022-12-25T17:48:03.323Z,-143.99
2022-12-25T17:50:29.713Z,-143.99
2022-12-25T17:52:56.001Z,-143.99
2022-12-25T17:55:22.282Z,-143.99
2022-12-25T17:57:48.632Z,-143.99
2022-12-25T18:00:15.342Z,-143.99
2022-12-25T18:02:43.815Z,-143.99
2022-12-25T18:05:10.419Z,-143.99
2022-12-25T18:07:36.679Z,-143.99
2022-12-25T18:10:03.162Z,-143.99
2022-12-25T18:12:29.461Z,-143.99
2022-12-25T18:14:55.827Z,-143.99
2022-12-25T18:17:22.152Z,-143.99
2022-12-25T18:19:51.201Z,-143.99
2022-12-25T18:22:17.472Z,-143.99
2022-12-25T18:24:43.788Z,-143.99
2022-12-25T18:27:10.100Z,-143.99
2022-12-25T18:29:36.381Z,-143.99
2022-12-25T18:32:02.744Z,-143.99
2022-12-25T18:34:29.096Z,-143.99
2022-12-25T18:37:02.631Z,-143.99
2022-12-25T18:39:30.106Z,-143.99
2022-12-25T18:42:15.284Z,-143.99
2022-12-25T18:44:41.775Z,-143.99
2022-12-25T18:47:08.088Z,-143.99
2022-12-25T18:49:35.321Z,-143.99
2022-12-25T18:52:49.405Z,-143.99
2022-12-25T18:54:49.401Z,-143.99
2022-12-25T18:57:16.203Z,-143.99
2022-12-25T18:59:42.675Z,-143.99
2022-12-25T19:02:11.854Z,-143.99
2022-12-25T19:04:38.399Z,-143.99
2022-12-25T19:07:05.873Z,-143.99
2022-12-25T19:09:33.040Z,-143.99
2022-12-25T19:11:59.412Z,-143.99
2022-12-25T19:14:28.200Z,-143.99
2022-12-25T19:16:55.700Z,-143.99
2022-12-25T19:19:23.466Z,-143.99
2022-12-25T19:21:54.561Z,-143.99
2022-12-25T19:24:21.461Z,-143.99
2022-12-25T19:26:48.066Z,-143.99
2022-12-25T19:29:14.829Z,-143.99
2022-12-25T19:31:41.752Z,-143.99
2022-12-25T19:34:09.860Z,-143.99
2022-12-25T19:36:38.234Z,-143.99
2022-12-25T19:39:06.351Z,-143.99
2022-12-25T19:41:33.400Z,-143.99
2022-12-25T19:44:00.520Z,-143.99
2022-12-25T19:46:30.611Z,-143.99
2022-12-25T19:48:57.423Z,-143.99
2022-12-25T19:51:29.318Z,-143.99
2022-12-25T19:53:58.753Z,-143.99
2022-12-25T19:56:26.987Z,-143.99
2022-12-25T19:58:53.410Z,-143.99
2022-12-25T20:01:22.169Z,-143.99
2022-12-25T20:03:49.372Z,-143.99
2022-12-25T20:06:24.706Z,-143.99
2022-12-25T20:08:53.580Z,-143.99
2022-12-25T20:11:21.683Z,-143.99
2022-12-25T20:13:48.233Z,-143.99
2022-12-25T20:16:14.637Z,-143.99
2022-12-25T20:18:41.669Z,-143.99
2022-12-25T20:21:12.018Z,-143.99
2022-12-25T20:23:38.489Z,-143.99
2022-12-25T20:26:05.590Z,-143.99
2022-12-25T20:28:33.897Z,-143.99
2022-12-25T20:31:09.002Z,-143.99
2022-12-25T20:33:36.051Z,-143.99
2022-12-25T20:36:03.683Z,-143.99
2022-12-25T20:38:30.830Z,-143.99
2022-12-25T20:41:27.259Z,-143.99
2022-12-25T20:43:55.564Z,-143.99
2022-12-25T20:46:22.077Z,-143.99
2022-12-25T20:48:48.428Z,-143.99
2022-12-25T20:51:16.801Z,-143.99
2022-12-25T20:53:43.492Z,-143.99
2022-12-25T20:56:12.344Z,-143.99
2022-12-25T20:58:39.021Z,-143.99
2022-12-25T21:01:12.096Z,-143.99
2022-12-25T21:03:38.635Z,-143.99
2022-12-25T21:06:05.405Z,-143.99
2022-12-25T21:08:31.817Z,-143.99
2022-12-25T21:11:02.624Z,-143.99
2022-12-25T21:13:31.730Z,-143.99
2022-12-25T21:15:58.869Z,-143.99
2022-12-25T21:18:27.713Z,-143.99
2022-12-25T21:20:57.356Z,-143.99
2022-12-25T21:23:26.446Z,-143.99
2022-12-25T21:25:53.559Z,-143.99
2022-12-25T21:28:20.638Z,-143.99
2022-12-25T21:30:47.296Z,-143.99
2022-12-25T21:33:33.325Z,-143.99
2022-12-25T21:36:10.465Z,-143.99
2022-12-25T21:38:38.515Z,-143.99
2022-12-25T21:41:06.144Z,-143.99
2022-12-25T21:43:33.993Z,-143.99
2022-12-25T21:46:05.438Z,-143.99
2022-12-25T21:48:33.418Z,-143.99
2022-12-25T21:51:35.743Z,-143.99
2022-12-25T21:54:02.953Z,-143.99
2022-12-25T21:56:30.920Z,-143.99
2022-12-25T21:59:01.231Z,-143.99
2022-12-25T22:01:29.249Z,-143.99
2022-12-25T22:03:56.563Z,-143.99
2022-12-25T22:06:41.601Z,-143.99
2022-12-25T22:09:08.845Z,-143.99
2022-12-25T22:11:54.035Z,-143.99
2022-12-25T22:14:51.103Z,-143.99
2022-12-25T22:17:43.574Z,-143.99
2022-12-25T22:20:14.428Z,-143.99
2022-12-25T22:22:40.859Z,-143.99
2022-12-25T22:25:08.893Z,-143.99
2022-12-25T22:27:37.836Z,-143.99
2022-12-25T22:30:08.652Z,-143.99
2022-12-25T22:32:35.120Z,-143.99
2022-12-25T22:35:01.644Z,-143.99
2022-12-25T22:37:28.003Z,-143.99
2022-12-25T22:39:54.485Z,-143.99
2022-12-25T22:42:20.871Z,-143.99
2022-12-25T22:44:47.216Z,-143.99
2022-12-25T22:47:13.604Z,-143.99
2022-12-25T22:49:39.960Z,-143.99
2022-12-25T22:52:08.032Z,-143.99
2022-12-25T22:54:34.400Z,-143.99
2022-12-25T22:57:00.707Z,-143.99
2022-12-25T22:59:27.650Z,-143.99
2022-12-25T23:01:54.670Z,-143.99
2022-12-25T23:04:21.159Z,-143.99
2022-12-25T23:06:47.818Z,-143.99
2022-12-25T23:09:23.951Z,-143.99
2022-12-25T23:11:51.090Z,-143.99
2022-12-25T23:14:35.863Z,-143.99
2022-12-25T23:17:02.230Z,-143.99
2022-12-25T23:19:47.119Z,-143.99
2022-12-25T23:22:32.098Z,-143.99
2022-12-25T23:25:17.903Z,-143.99
2022-12-25T23:27:45.245Z,-143.99
2022-12-25T23:30:15.491Z,-143.99
2022-12-25T23:32:43.303Z,-143.99
2022-12-25T23:35:11.215Z,-143.99
2022-12-25T23:37:37.696Z,-143.99
2022-12-25T23:40:04.532Z,-143.99
2022-12-25T23:42:30.921Z,-143.99
2022-12-25T23:44:57.441Z,-143.99
2022-12-25T23:47:23.752Z,-143.99
2022-12-25T23:49:50.119Z,-143.99
2022-12-25T23:52:16.659Z,-143.99
2022-12-25T23:54:42.996Z,-143.99
2022-12-25T23:57:09.350Z,-143.99
2022-12-25T23:59:35.798Z,-143.99
